sensor_id;sensor_type;location;lat;lon;timestamp;P1;durP1;ratioP1;P2;durP2;ratioP2
20857;SDS011;10589;53.636;10.012;2022-08-30T03:46:13;1.20;;;0.70;;
20857;SDS011;10589;53.636;10.012;2022-08-30T03:48:39;1.90;;;0.90;;
20857;SDS011;10589;53.636;10.012;2022-08-30T03:51:05;2.03;;;1.02;;
20857;SDS011;10589;53.636;10.012;2022-08-30T03:53:31;1.50;;;0.80;;
20857;SDS011;10589;53.636;10.012;2022-08-30T03:55:57;5.93;;;1.20;;
20857;SDS011;10589;53.636;10.012;2022-08-30T03:58:23;1.23;;;0.83;;
20857;SDS011;10589;53.636;10.012;2022-08-30T04:00:49;1.23;;;0.70;;
20857;SDS011;10589;53.636;10.012;2022-08-30T04:03:15;1.50;;;0.90;;
20857;SDS011;10589;53.636;10.012;2022-08-30T04:05:42;1.63;;;1.00;;
20857;SDS011;10589;53.636;10.012;2022-08-30T04:08:09;1.77;;;1.10;;
20857;SDS011;10589;53.636;10.012;2022-08-30T04:10:35;2.53;;;1.03;;
20857;SDS011;10589;53.636;10.012;2022-08-30T04:13:00;2.03;;;0.90;;
20857;SDS011;10589;53.636;10.012;2022-08-30T04:15:26;3.63;;;1.30;;
20857;SDS011;10589;53.636;10.012;2022-08-30T04:17:52;1.07;;;0.83;;
20857;SDS011;10589;53.636;10.012;2022-08-30T04:20:19;1.73;;;0.87;;
20857;SDS011;10589;53.636;10.012;2022-08-30T04:22:45;1.83;;;1.00;;
20857;SDS011;10589;53.636;10.012;2022-08-30T04:25:11;2.23;;;1.10;;
20857;SDS011;10589;53.636;10.012;2022-08-30T04:27:37;3.17;;;1.30;;
20857;SDS011;10589;53.636;10.012;2022-08-30T04:30:03;1.60;;;1.00;;
20857;SDS011;10589;53.636;10.012;2022-08-30T04:32:29;4.40;;;1.40;;
20857;SDS011;10589;53.636;10.012;2022-08-30T04:34:58;2.87;;;1.20;;
20857;SDS011;10589;53.636;10.012;2022-08-30T04:37:24;3.33;;;1.20;;
20857;SDS011;10589;53.636;10.012;2022-08-30T04:39:49;3.80;;;1.50;;
20857;SDS011;10589;53.636;10.012;2022-08-30T04:42:18;3.47;;;1.40;;
20857;SDS011;10589;53.636;10.012;2022-08-30T04:44:44;2.00;;;1.07;;
20857;SDS011;10589;53.636;10.012;2022-08-30T04:47:10;2.23;;;1.10;;
20857;SDS011;10589;53.636;10.012;2022-08-30T04:49:36;3.07;;;1.20;;
20857;SDS011;10589;53.636;10.012;2022-08-30T04:52:01;1.90;;;1.13;;
20857;SDS011;10589;53.636;10.012;2022-08-30T04:54:27;2.00;;;1.10;;
20857;SDS011;10589;53.636;10.012;2022-08-30T04:56:53;3.27;;;1.10;;
20857;SDS011;10589;53.636;10.012;2022-08-30T04:59:19;0.93;;;0.87;;
20857;SDS011;10589;53.636;10.012;2022-08-30T05:01:46;3.43;;;1.00;;
20857;SDS011;10589;53.636;10.012;2022-08-30T05:04:12;5.40;;;1.20;;
20857;SDS011;10589;53.636;10.012;2022-08-30T05:06:39;1.73;;;1.00;;
20857;SDS011;10589;53.636;10.012;2022-08-30T05:09:04;1.80;;;1.10;;
20857;SDS011;10589;53.636;10.012;2022-08-30T05:11:30;4.43;;;1.30;;
20857;SDS011;10589;53.636;10.012;2022-08-30T05:13:55;2.77;;;1.30;;
20857;SDS011;10589;53.636;10.012;2022-08-30T05:16:21;1.70;;;1.20;;
20857;SDS011;10589;53.636;10.012;2022-08-30T05:18:47;3.37;;;1.30;;
20857;SDS011;10589;53.636;10.012;2022-08-30T05:21:18;3.17;;;1.30;;
20857;SDS011;10589;53.636;10.012;2022-08-30T05:23:49;2.00;;;1.13;;
20857;SDS011;10589;53.636;10.012;2022-08-30T05:26:21;2.87;;;1.10;;
20857;SDS011;10589;53.636;10.012;2022-08-30T05:28:48;4.20;;;1.30;;
20857;SDS011;10589;53.636;10.012;2022-08-30T05:31:19;3.67;;;1.30;;
20857;SDS011;10589;53.636;10.012;2022-08-30T05:33:50;2.57;;;0.90;;
20857;SDS011;10589;53.636;10.012;2022-08-30T05:36:17;2.47;;;1.03;;
20857;SDS011;10589;53.636;10.012;2022-08-30T05:38:43;2.37;;;1.00;;
20857;SDS011;10589;53.636;10.012;2022-08-30T05:41:10;3.60;;;1.30;;
20857;SDS011;10589;53.636;10.012;2022-08-30T05:43:36;2.47;;;1.47;;
20857;SDS011;10589;53.636;10.012;2022-08-30T05:46:03;4.10;;;1.23;;
20857;SDS011;10589;53.636;10.012;2022-08-30T05:48:31;1.63;;;1.00;;
20857;SDS011;10589;53.636;10.012;2022-08-30T05:51:03;4.07;;;1.42;;
20857;SDS011;10589;53.636;10.012;2022-08-30T05:53:30;3.50;;;1.30;;
20857;SDS011;10589;53.636;10.012;2022-08-30T05:55:56;2.30;;;1.20;;
20857;SDS011;10589;53.636;10.012;2022-08-30T05:58:22;2.85;;;1.02;;
20857;SDS011;10589;53.636;10.012;2022-08-30T06:00:48;2.72;;;1.10;;
20857;SDS011;10589;53.636;10.012;2022-08-30T06:03:13;3.70;;;1.35;;
20857;SDS011;10589;53.636;10.012;2022-08-30T06:05:39;3.23;;;1.53;;
20857;SDS011;10589;53.636;10.012;2022-08-30T06:08:05;1.70;;;0.82;;
20857;SDS011;10589;53.636;10.012;2022-08-30T06:10:30;4.68;;;1.30;;
20857;SDS011;10589;53.636;10.012;2022-08-30T06:12:56;1.67;;;1.00;;
20857;SDS011;10589;53.636;10.012;2022-08-30T06:15:21;2.67;;;0.90;;
20857;SDS011;10589;53.636;10.012;2022-08-30T06:17:47;3.30;;;1.10;;
20857;SDS011;10589;53.636;10.012;2022-08-30T06:20:12;1.00;;;0.88;;
20857;SDS011;10589;53.636;10.012;2022-08-30T06:22:38;1.63;;;0.97;;
20857;SDS011;10589;53.636;10.012;2022-08-30T06:25:05;2.67;;;1.17;;
20857;SDS011;10589;53.636;10.012;2022-08-30T06:27:31;2.25;;;0.90;;
20857;SDS011;10589;53.636;10.012;2022-08-30T06:29:57;2.13;;;0.93;;
20857;SDS011;10589;53.636;10.012;2022-08-30T06:32:23;1.73;;;1.00;;
20857;SDS011;10589;53.636;10.012;2022-08-30T06:34:48;3.63;;;0.90;;
20857;SDS011;10589;53.636;10.012;2022-08-30T06:37:14;2.15;;;1.08;;
20857;SDS011;10589;53.636;10.012;2022-08-30T06:39:40;1.08;;;0.80;;
20857;SDS011;10589;53.636;10.012;2022-08-30T06:42:05;1.63;;;0.80;;
20857;SDS011;10589;53.636;10.012;2022-08-30T06:44:31;3.38;;;0.90;;
20857;SDS011;10589;53.636;10.012;2022-08-30T06:46:57;1.40;;;0.70;;
20857;SDS011;10589;53.636;10.012;2022-08-30T06:49:23;1.15;;;0.70;;
20857;SDS011;10589;53.636;10.012;2022-08-30T06:51:48;3.35;;;1.00;;
20857;SDS011;10589;53.636;10.012;2022-08-30T06:54:15;1.92;;;1.00;;
20857;SDS011;10589;53.636;10.012;2022-08-30T06:56:41;2.53;;;1.02;;
20857;SDS011;10589;53.636;10.012;2022-08-30T06:59:06;2.63;;;1.00;;
20857;SDS011;10589;53.636;10.012;2022-08-30T07:01:32;1.77;;;0.90;;
20857;SDS011;10589;53.636;10.012;2022-08-30T07:03:58;2.50;;;1.00;;
20857;SDS011;10589;53.636;10.012;2022-08-30T07:06:25;3.53;;;1.10;;
20857;SDS011;10589;53.636;10.012;2022-08-30T07:08:52;1.97;;;1.10;;
20857;SDS011;10589;53.636;10.012;2022-08-30T07:11:29;1.63;;;0.93;;
20857;SDS011;10589;53.636;10.012;2022-08-30T07:13:56;3.37;;;1.13;;
20857;SDS011;10589;53.636;10.012;2022-08-30T07:16:23;1.83;;;0.90;;
20857;SDS011;10589;53.636;10.012;2022-08-30T07:18:49;1.35;;;0.82;;
20857;SDS011;10589;53.636;10.012;2022-08-30T07:21:15;4.72;;;1.00;;
20857;SDS011;10589;53.636;10.012;2022-08-30T07:23:43;1.42;;;0.90;;
20857;SDS011;10589;53.636;10.012;2022-08-30T07:26:12;2.55;;;1.08;;
20857;SDS011;10589;53.636;10.012;2022-08-30T07:28:40;2.00;;;0.90;;
20857;SDS011;10589;53.636;10.012;2022-08-30T07:31:08;1.60;;;0.95;;
20857;SDS011;10589;53.636;10.012;2022-08-30T07:33:34;1.92;;;1.00;;
20857;SDS011;10589;53.636;10.012;2022-08-30T07:36:00;5.63;;;0.90;;
20857;SDS011;10589;53.636;10.012;2022-08-30T07:38:28;3.50;;;0.93;;
20857;SDS011;10589;53.636;10.012;2022-08-30T07:40:55;1.38;;;1.00;;
20857;SDS011;10589;53.636;10.012;2022-08-30T07:43:25;4.22;;;0.90;;
20857;SDS011;10589;53.636;10.012;2022-08-30T07:45:53;3.85;;;0.90;;
20857;SDS011;10589;53.636;10.012;2022-08-30T07:48:21;2.80;;;0.82;;
20857;SDS011;10589;53.636;10.012;2022-08-30T07:50:47;4.13;;;1.02;;
20857;SDS011;10589;53.636;10.012;2022-08-30T07:53:13;1.17;;;0.70;;
20857;SDS011;10589;53.636;10.012;2022-08-30T07:55:39;1.98;;;0.90;;
20857;SDS011;10589;53.636;10.012;2022-08-30T07:58:04;3.28;;;1.00;;
20857;SDS011;10589;53.636;10.012;2022-08-30T08:00:30;2.35;;;0.90;;
20857;SDS011;10589;53.636;10.012;2022-08-30T08:02:56;3.10;;;0.80;;
20857;SDS011;10589;53.636;10.012;2022-08-30T08:05:21;1.42;;;0.80;;
20857;SDS011;10589;53.636;10.012;2022-08-30T08:07:47;2.75;;;1.00;;
20857;SDS011;10589;53.636;10.012;2022-08-30T08:10:13;3.88;;;0.80;;
20857;SDS011;10589;53.636;10.012;2022-08-30T08:12:39;2.15;;;0.93;;
20857;SDS011;10589;53.636;10.012;2022-08-30T08:15:05;2.25;;;0.80;;
20857;SDS011;10589;53.636;10.012;2022-08-30T08:17:31;3.13;;;0.80;;
20857;SDS011;10589;53.636;10.012;2022-08-30T08:19:57;1.20;;;0.90;;
20857;SDS011;10589;53.636;10.012;2022-08-30T08:22:22;2.15;;;0.73;;
20857;SDS011;10589;53.636;10.012;2022-08-30T08:24:48;1.50;;;0.70;;
20857;SDS011;10589;53.636;10.012;2022-08-30T08:27:14;1.33;;;0.80;;
20857;SDS011;10589;53.636;10.012;2022-08-30T08:29:39;1.17;;;0.75;;
20857;SDS011;10589;53.636;10.012;2022-08-30T08:32:06;2.58;;;0.80;;
20857;SDS011;10589;53.636;10.012;2022-08-30T08:34:31;2.03;;;0.95;;
20857;SDS011;10589;53.636;10.012;2022-08-30T08:36:58;2.50;;;0.80;;
20857;SDS011;10589;53.636;10.012;2022-08-30T08:39:24;2.83;;;1.10;;
20857;SDS011;10589;53.636;10.012;2022-08-30T08:42:03;3.05;;;0.60;;
20857;SDS011;10589;53.636;10.012;2022-08-30T08:49:38;0.77;;;0.50;;
20857;SDS011;10589;53.636;10.012;2022-08-30T08:52:06;3.03;;;0.80;;
20857;SDS011;10589;53.636;10.012;2022-08-30T08:54:56;2.35;;;0.70;;
20857;SDS011;10589;53.636;10.012;2022-08-30T08:57:26;1.75;;;0.63;;
20857;SDS011;10589;53.636;10.012;2022-08-30T08:59:58;2.28;;;0.57;;
20857;SDS011;10589;53.636;10.012;2022-08-30T09:02:24;1.08;;;0.50;;
20857;SDS011;10589;53.636;10.012;2022-08-30T09:04:53;2.38;;;0.50;;
20857;SDS011;10589;53.636;10.012;2022-08-30T09:07:30;3.30;;;0.50;;
20857;SDS011;10589;53.636;10.012;2022-08-30T09:09:59;2.15;;;0.50;;
20857;SDS011;10589;53.636;10.012;2022-08-30T09:12:26;0.47;;;0.40;;
20857;SDS011;10589;53.636;10.012;2022-08-30T09:14:53;0.95;;;0.60;;
20857;SDS011;10589;53.636;10.012;2022-08-30T09:17:50;1.33;;;0.55;;
20857;SDS011;10589;53.636;10.012;2022-08-30T09:20:27;3.28;;;0.40;;
20857;SDS011;10589;53.636;10.012;2022-08-30T09:25:52;1.20;;;0.50;;
20857;SDS011;10589;53.636;10.012;2022-08-30T09:28:23;3.17;;;0.60;;
20857;SDS011;10589;53.636;10.012;2022-08-30T09:33:22;0.90;;;0.43;;
20857;SDS011;10589;53.636;10.012;2022-08-30T09:35:49;1.30;;;0.65;;
20857;SDS011;10589;53.636;10.012;2022-08-30T09:40:56;1.13;;;0.40;;
20857;SDS011;10589;53.636;10.012;2022-08-30T09:43:32;3.47;;;1.00;;
20857;SDS011;10589;53.636;10.012;2022-08-30T09:48:32;1.65;;;0.77;;
20857;SDS011;10589;53.636;10.012;2022-08-30T09:51:13;1.15;;;0.70;;
20857;SDS011;10589;53.636;10.012;2022-08-30T10:01:42;2.08;;;0.80;;
20857;SDS011;10589;53.636;10.012;2022-08-30T10:06:50;1.83;;;0.60;;
20857;SDS011;10589;53.636;10.012;2022-08-30T10:09:27;1.38;;;0.60;;
20857;SDS011;10589;53.636;10.012;2022-08-30T10:12:53;2.50;;;0.70;;
20857;SDS011;10589;53.636;10.012;2022-08-30T10:17:55;1.80;;;0.73;;
20857;SDS011;10589;53.636;10.012;2022-08-30T10:20:30;2.00;;;0.70;;
20857;SDS011;10589;53.636;10.012;2022-08-30T10:28:16;1.13;;;0.57;;
20857;SDS011;10589;53.636;10.012;2022-08-30T10:31:05;0.70;;;0.50;;
20857;SDS011;10589;53.636;10.012;2022-08-30T10:33:38;3.88;;;0.70;;
20857;SDS011;10589;53.636;10.012;2022-08-30T10:36:11;2.45;;;0.60;;
20857;SDS011;10589;53.636;10.012;2022-08-30T10:38:39;2.00;;;0.63;;
20857;SDS011;10589;53.636;10.012;2022-08-30T10:46:53;1.45;;;0.50;;
20857;SDS011;10589;53.636;10.012;2022-08-30T10:49:31;1.70;;;0.60;;
20857;SDS011;10589;53.636;10.012;2022-08-30T10:54:47;5.95;;;0.80;;
20857;SDS011;10589;53.636;10.012;2022-08-30T10:57:16;2.72;;;0.77;;
20857;SDS011;10589;53.636;10.012;2022-08-30T10:59:53;2.55;;;0.70;;
20857;SDS011;10589;53.636;10.012;2022-08-30T11:05:24;1.83;;;0.73;;
20857;SDS011;10589;53.636;10.012;2022-08-30T11:13:09;4.28;;;0.80;;
20857;SDS011;10589;53.636;10.012;2022-08-30T11:18:30;1.77;;;0.80;;
20857;SDS011;10589;53.636;10.012;2022-08-30T11:24:09;1.80;;;0.80;;
20857;SDS011;10589;53.636;10.012;2022-08-30T11:39:55;3.15;;;0.68;;
20857;SDS011;10589;53.636;10.012;2022-08-30T11:44:48;2.17;;;0.60;;
20857;SDS011;10589;53.636;10.012;2022-08-30T11:56:06;2.00;;;0.63;;
20857;SDS011;10589;53.636;10.012;2022-08-30T11:58:41;1.85;;;0.60;;
20857;SDS011;10589;53.636;10.012;2022-08-30T12:04:08;1.60;;;0.70;;
20857;SDS011;10589;53.636;10.012;2022-08-30T12:09:05;1.65;;;0.60;;
20857;SDS011;10589;53.636;10.012;2022-08-30T12:15:03;1.70;;;0.60;;
20857;SDS011;10589;53.636;10.012;2022-08-30T12:17:31;1.73;;;0.60;;
20857;SDS011;10589;53.636;10.012;2022-08-30T12:20:53;0.98;;;0.50;;
20857;SDS011;10589;53.636;10.012;2022-08-30T12:23:26;0.98;;;0.40;;
20857;SDS011;10589;53.636;10.012;2022-08-30T12:26:11;1.13;;;0.70;;
20857;SDS011;10589;53.636;10.012;2022-08-30T12:28:43;1.88;;;0.60;;
20857;SDS011;10589;53.636;10.012;2022-08-30T12:31:21;3.30;;;0.70;;
20857;SDS011;10589;53.636;10.012;2022-08-30T12:33:52;3.38;;;1.00;;
20857;SDS011;10589;53.636;10.012;2022-08-30T12:36:30;1.90;;;0.55;;
20857;SDS011;10589;53.636;10.012;2022-08-30T12:39:33;1.67;;;0.57;;
20857;SDS011;10589;53.636;10.012;2022-08-30T12:44:51;2.25;;;0.60;;
20857;SDS011;10589;53.636;10.012;2022-08-30T12:47:26;1.75;;;0.52;;
20857;SDS011;10589;53.636;10.012;2022-08-30T12:50:02;1.20;;;0.50;;
20857;SDS011;10589;53.636;10.012;2022-08-30T12:52:31;0.60;;;0.50;;
20857;SDS011;10589;53.636;10.012;2022-08-30T12:55:10;2.38;;;0.50;;
20857;SDS011;10589;53.636;10.012;2022-08-30T12:58:03;2.67;;;0.70;;
20857;SDS011;10589;53.636;10.012;2022-08-30T13:00:34;1.98;;;0.75;;
20857;SDS011;10589;53.636;10.012;2022-08-30T13:05:48;1.85;;;0.77;;
20857;SDS011;10589;53.636;10.012;2022-08-30T13:08:32;1.20;;;0.50;;
20857;SDS011;10589;53.636;10.012;2022-08-30T13:13:56;1.63;;;0.50;;
20857;SDS011;10589;53.636;10.012;2022-08-30T13:16:42;2.35;;;0.47;;
20857;SDS011;10589;53.636;10.012;2022-08-30T13:19:30;1.40;;;0.85;;
20857;SDS011;10589;53.636;10.012;2022-08-30T13:21:58;1.17;;;0.40;;
20857;SDS011;10589;53.636;10.012;2022-08-30T13:24:25;3.33;;;0.60;;
20857;SDS011;10589;53.636;10.012;2022-08-30T13:26:55;0.98;;;0.60;;
20857;SDS011;10589;53.636;10.012;2022-08-30T13:29:26;0.50;;;0.40;;
20857;SDS011;10589;53.636;10.012;2022-08-30T13:31:53;1.30;;;0.60;;
20857;SDS011;10589;53.636;10.012;2022-08-30T13:34:19;1.25;;;0.52;;
20857;SDS011;10589;53.636;10.012;2022-08-30T13:36:54;1.67;;;0.50;;
20857;SDS011;10589;53.636;10.012;2022-08-30T13:39:21;1.00;;;0.55;;
20857;SDS011;10589;53.636;10.012;2022-08-30T13:41:46;1.50;;;0.40;;
20857;SDS011;10589;53.636;10.012;2022-08-30T13:44:12;1.73;;;0.68;;
20857;SDS011;10589;53.636;10.012;2022-08-30T13:46:39;1.45;;;0.40;;
20857;SDS011;10589;53.636;10.012;2022-08-30T13:49:08;1.88;;;0.43;;
20857;SDS011;10589;53.636;10.012;2022-08-30T13:51:40;1.23;;;0.40;;
20857;SDS011;10589;53.636;10.012;2022-08-30T13:54:05;0.98;;;0.45;;
20857;SDS011;10589;53.636;10.012;2022-08-30T13:56:31;1.48;;;0.60;;
20857;SDS011;10589;53.636;10.012;2022-08-30T13:59:00;3.13;;;0.60;;
20857;SDS011;10589;53.636;10.012;2022-08-30T14:01:26;1.90;;;0.40;;
20857;SDS011;10589;53.636;10.012;2022-08-30T14:03:52;4.95;;;0.63;;
20857;SDS011;10589;53.636;10.012;2022-08-30T14:06:18;0.70;;;0.40;;
20857;SDS011;10589;53.636;10.012;2022-08-30T14:08:44;2.13;;;0.40;;
20857;SDS011;10589;53.636;10.012;2022-08-30T14:11:10;2.67;;;0.40;;
20857;SDS011;10589;53.636;10.012;2022-08-30T14:13:39;3.15;;;0.60;;
20857;SDS011;10589;53.636;10.012;2022-08-30T14:16:07;4.05;;;0.70;;
20857;SDS011;10589;53.636;10.012;2022-08-30T14:18:33;1.67;;;0.50;;
20857;SDS011;10589;53.636;10.012;2022-08-30T14:20:59;3.58;;;0.57;;
20857;SDS011;10589;53.636;10.012;2022-08-30T14:23:25;2.13;;;0.50;;
20857;SDS011;10589;53.636;10.012;2022-08-30T14:25:51;1.10;;;0.50;;
20857;SDS011;10589;53.636;10.012;2022-08-30T14:28:18;4.35;;;0.47;;
20857;SDS011;10589;53.636;10.012;2022-08-30T14:30:45;2.17;;;0.50;;
20857;SDS011;10589;53.636;10.012;2022-08-30T14:33:11;1.27;;;0.60;;
20857;SDS011;10589;53.636;10.012;2022-08-30T14:35:37;1.10;;;0.52;;
20857;SDS011;10589;53.636;10.012;2022-08-30T14:38:03;4.43;;;0.77;;
20857;SDS011;10589;53.636;10.012;2022-08-30T14:40:29;0.88;;;0.45;;
20857;SDS011;10589;53.636;10.012;2022-08-30T14:42:55;3.00;;;0.75;;
20857;SDS011;10589;53.636;10.012;2022-08-30T14:45:21;1.17;;;0.50;;
20857;SDS011;10589;53.636;10.012;2022-08-30T14:47:46;1.65;;;0.70;;
20857;SDS011;10589;53.636;10.012;2022-08-30T14:50:12;2.80;;;0.70;;
20857;SDS011;10589;53.636;10.012;2022-08-30T14:52:39;3.40;;;0.68;;
20857;SDS011;10589;53.636;10.012;2022-08-30T14:55:06;1.23;;;0.75;;
20857;SDS011;10589;53.636;10.012;2022-08-30T14:57:34;1.98;;;0.80;;
20857;SDS011;10589;53.636;10.012;2022-08-30T15:00:00;0.85;;;0.60;;
20857;SDS011;10589;53.636;10.012;2022-08-30T15:02:26;0.88;;;0.50;;
20857;SDS011;10589;53.636;10.012;2022-08-30T15:04:52;3.13;;;0.50;;
20857;SDS011;10589;53.636;10.012;2022-08-30T15:07:17;1.02;;;0.55;;
20857;SDS011;10589;53.636;10.012;2022-08-30T15:09:43;3.70;;;0.45;;
20857;SDS011;10589;53.636;10.012;2022-08-30T15:12:08;2.70;;;0.50;;
20857;SDS011;10589;53.636;10.012;2022-08-30T15:14:34;0.82;;;0.50;;
20857;SDS011;10589;53.636;10.012;2022-08-30T15:17:00;0.45;;;0.40;;
20857;SDS011;10589;53.636;10.012;2022-08-30T15:19:29;3.33;;;0.50;;
20857;SDS011;10589;53.636;10.012;2022-08-30T15:21:58;2.08;;;0.75;;
20857;SDS011;10589;53.636;10.012;2022-08-30T15:24:25;0.98;;;0.60;;
20857;SDS011;10589;53.636;10.012;2022-08-30T15:26:50;0.65;;;0.43;;
20857;SDS011;10589;53.636;10.012;2022-08-30T15:29:17;0.40;;;0.40;;
20857;SDS011;10589;53.636;10.012;2022-08-30T15:31:44;1.25;;;0.50;;
20857;SDS011;10589;53.636;10.012;2022-08-30T15:34:12;2.08;;;0.40;;
20857;SDS011;10589;53.636;10.012;2022-08-30T15:36:40;3.20;;;0.60;;
20857;SDS011;10589;53.636;10.012;2022-08-30T15:39:07;3.90;;;0.40;;
20857;SDS011;10589;53.636;10.012;2022-08-30T15:41:33;3.50;;;0.60;;
20857;SDS011;10589;53.636;10.012;2022-08-30T15:44:00;1.85;;;0.40;;
20857;SDS011;10589;53.636;10.012;2022-08-30T15:46:30;2.10;;;0.55;;
20857;SDS011;10589;53.636;10.012;2022-08-30T15:49:12;2.22;;;0.65;;
20857;SDS011;10589;53.636;10.012;2022-08-30T15:51:40;2.75;;;0.60;;
20857;SDS011;10589;53.636;10.012;2022-08-30T15:54:07;2.97;;;0.50;;
20857;SDS011;10589;53.636;10.012;2022-08-30T15:56:35;2.42;;;0.50;;
20857;SDS011;10589;53.636;10.012;2022-08-30T15:59:01;1.45;;;0.40;;
20857;SDS011;10589;53.636;10.012;2022-08-30T16:01:27;0.85;;;0.47;;
20857;SDS011;10589;53.636;10.012;2022-08-30T16:03:52;0.80;;;0.50;;
20857;SDS011;10589;53.636;10.012;2022-08-30T16:06:20;1.80;;;0.50;;
20857;SDS011;10589;53.636;10.012;2022-08-30T16:08:47;1.05;;;0.45;;
20857;SDS011;10589;53.636;10.012;2022-08-30T16:11:15;1.95;;;0.30;;
20857;SDS011;10589;53.636;10.012;2022-08-30T16:13:43;1.70;;;0.32;;
20857;SDS011;10589;53.636;10.012;2022-08-30T16:16:10;1.17;;;0.40;;
20857;SDS011;10589;53.636;10.012;2022-08-30T16:18:36;3.05;;;0.60;;
20857;SDS011;10589;53.636;10.012;2022-08-30T16:23:39;1.75;;;0.30;;
20857;SDS011;10589;53.636;10.012;2022-08-30T16:26:06;2.10;;;0.30;;
20857;SDS011;10589;53.636;10.012;2022-08-30T16:28:33;0.73;;;0.22;;
20857;SDS011;10589;53.636;10.012;2022-08-30T16:31:00;0.70;;;0.47;;
20857;SDS011;10589;53.636;10.012;2022-08-30T16:33:27;2.92;;;0.30;;
20857;SDS011;10589;53.636;10.012;2022-08-30T16:35:54;0.85;;;0.38;;
20857;SDS011;10589;53.636;10.012;2022-08-30T16:38:21;2.63;;;0.30;;
20857;SDS011;10589;53.636;10.012;2022-08-30T16:40:48;0.95;;;0.20;;
20857;SDS011;10589;53.636;10.012;2022-08-30T16:43:14;2.22;;;0.32;;
20857;SDS011;10589;53.636;10.012;2022-08-30T16:45:40;2.33;;;0.30;;
20857;SDS011;10589;53.636;10.012;2022-08-30T16:48:07;0.90;;;0.30;;
20857;SDS011;10589;53.636;10.012;2022-08-30T16:50:34;1.95;;;0.20;;
20857;SDS011;10589;53.636;10.012;2022-08-30T16:53:04;1.42;;;0.28;;
20857;SDS011;10589;53.636;10.012;2022-08-30T16:55:30;0.20;;;0.20;;
20857;SDS011;10589;53.636;10.012;2022-08-30T16:58:00;0.80;;;0.20;;
20857;SDS011;10589;53.636;10.012;2022-08-30T17:00:26;1.27;;;0.20;;
20857;SDS011;10589;53.636;10.012;2022-08-30T17:02:52;0.82;;;0.30;;
20857;SDS011;10589;53.636;10.012;2022-08-30T17:05:19;1.63;;;0.40;;
20857;SDS011;10589;53.636;10.012;2022-08-30T17:07:45;0.68;;;0.30;;
20857;SDS011;10589;53.636;10.012;2022-08-30T17:10:11;0.30;;;0.30;;
20857;SDS011;10589;53.636;10.012;2022-08-30T17:12:36;1.33;;;0.32;;
20857;SDS011;10589;53.636;10.012;2022-08-30T17:15:03;1.20;;;0.30;;
20857;SDS011;10589;53.636;10.012;2022-08-30T17:17:29;0.60;;;0.40;;
20857;SDS011;10589;53.636;10.012;2022-08-30T17:19:54;0.73;;;0.30;;
20857;SDS011;10589;53.636;10.012;2022-08-30T17:22:20;0.88;;;0.40;;
20857;SDS011;10589;53.636;10.012;2022-08-30T17:24:46;1.13;;;0.20;;
20857;SDS011;10589;53.636;10.012;2022-08-30T17:27:11;1.20;;;0.40;;
20857;SDS011;10589;53.636;10.012;2022-08-30T17:29:37;1.77;;;0.30;;
20857;SDS011;10589;53.636;10.012;2022-08-30T17:32:03;0.75;;;0.17;;
20857;SDS011;10589;53.636;10.012;2022-08-30T17:34:28;0.35;;;0.20;;
20857;SDS011;10589;53.636;10.012;2022-08-30T17:36:54;0.70;;;0.30;;
20857;SDS011;10589;53.636;10.012;2022-08-30T17:39:22;2.75;;;0.30;;
20857;SDS011;10589;53.636;10.012;2022-08-30T17:41:48;1.00;;;0.30;;
20857;SDS011;10589;53.636;10.012;2022-08-30T17:44:13;4.88;;;0.30;;
20857;SDS011;10589;53.636;10.012;2022-08-30T17:46:39;0.60;;;0.20;;
20857;SDS011;10589;53.636;10.012;2022-08-30T17:49:05;0.22;;;0.20;;
20857;SDS011;10589;53.636;10.012;2022-08-30T17:51:31;0.47;;;0.28;;
20857;SDS011;10589;53.636;10.012;2022-08-30T17:53:57;0.57;;;0.15;;
20857;SDS011;10589;53.636;10.012;2022-08-30T17:56:23;0.60;;;0.28;;
20857;SDS011;10589;53.636;10.012;2022-08-30T17:58:51;0.30;;;0.30;;
20857;SDS011;10589;53.636;10.012;2022-08-30T18:01:17;0.57;;;0.28;;
20857;SDS011;10589;53.636;10.012;2022-08-30T18:03:44;1.70;;;0.40;;
20857;SDS011;10589;53.636;10.012;2022-08-30T18:06:09;2.00;;;0.30;;
20857;SDS011;10589;53.636;10.012;2022-08-30T18:08:35;0.65;;;0.10;;
20857;SDS011;10589;53.636;10.012;2022-08-30T18:11:02;1.85;;;0.30;;
20857;SDS011;10589;53.636;10.012;2022-08-30T18:13:28;1.95;;;0.57;;
20857;SDS011;10589;53.636;10.012;2022-08-30T18:15:54;1.92;;;0.20;;
20857;SDS011;10589;53.636;10.012;2022-08-30T18:18:20;1.73;;;0.20;;
20857;SDS011;10589;53.636;10.012;2022-08-30T18:20:46;3.40;;;0.33;;
20857;SDS011;10589;53.636;10.012;2022-08-30T18:23:11;1.10;;;0.25;;
20857;SDS011;10589;53.636;10.012;2022-08-30T18:25:38;3.83;;;0.20;;
20857;SDS011;10589;53.636;10.012;2022-08-30T18:28:04;1.67;;;0.20;;
20857;SDS011;10589;53.636;10.012;2022-08-30T18:30:31;0.93;;;0.20;;
20857;SDS011;10589;53.636;10.012;2022-08-30T18:32:57;0.40;;;0.20;;
20857;SDS011;10589;53.636;10.012;2022-08-30T18:35:23;0.30;;;0.10;;
20857;SDS011;10589;53.636;10.012;2022-08-30T18:37:49;2.10;;;0.30;;
20857;SDS011;10589;53.636;10.012;2022-08-30T18:40:15;0.20;;;0.20;;
20857;SDS011;10589;53.636;10.012;2022-08-30T18:42:42;0.77;;;0.20;;
20857;SDS011;10589;53.636;10.012;2022-08-30T18:45:08;4.47;;;0.30;;
20857;SDS011;10589;53.636;10.012;2022-08-30T18:47:34;0.73;;;0.30;;
20857;SDS011;10589;53.636;10.012;2022-08-30T18:50:01;2.33;;;0.30;;
20857;SDS011;10589;53.636;10.012;2022-08-30T18:52:28;0.80;;;0.40;;
20857;SDS011;10589;53.636;10.012;2022-08-30T18:54:54;0.77;;;0.20;;
20857;SDS011;10589;53.636;10.012;2022-08-30T18:57:20;2.13;;;0.40;;
20857;SDS011;10589;53.636;10.012;2022-08-30T18:59:46;0.97;;;0.30;;
20857;SDS011;10589;53.636;10.012;2022-08-30T19:02:13;0.47;;;0.40;;
20857;SDS011;10589;53.636;10.012;2022-08-30T19:04:40;0.70;;;0.30;;
20857;SDS011;10589;53.636;10.012;2022-08-30T19:07:08;1.00;;;0.20;;
20857;SDS011;10589;53.636;10.012;2022-08-30T19:09:36;1.43;;;0.20;;
20857;SDS011;10589;53.636;10.012;2022-08-30T19:12:02;0.70;;;0.27;;
20857;SDS011;10589;53.636;10.012;2022-08-30T19:14:29;1.63;;;0.40;;
20857;SDS011;10589;53.636;10.012;2022-08-30T19:16:54;0.20;;;0.20;;
20857;SDS011;10589;53.636;10.012;2022-08-30T19:19:20;1.30;;;0.30;;
20857;SDS011;10589;53.636;10.012;2022-08-30T19:21:46;0.60;;;0.50;;
20857;SDS011;10589;53.636;10.012;2022-08-30T19:24:13;1.27;;;0.60;;
20857;SDS011;10589;53.636;10.012;2022-08-30T19:26:39;0.40;;;0.30;;
20857;SDS011;10589;53.636;10.012;2022-08-30T19:29:06;2.10;;;0.53;;
20857;SDS011;10589;53.636;10.012;2022-08-30T19:31:32;0.80;;;0.43;;
20857;SDS011;10589;53.636;10.012;2022-08-30T19:33:58;0.50;;;0.37;;
20857;SDS011;10589;53.636;10.012;2022-08-30T19:36:24;0.90;;;0.40;;
20857;SDS011;10589;53.636;10.012;2022-08-30T19:38:49;0.70;;;0.20;;
20857;SDS011;10589;53.636;10.012;2022-08-30T19:41:15;0.40;;;0.30;;
20857;SDS011;10589;53.636;10.012;2022-08-30T19:43:41;1.63;;;0.30;;
20857;SDS011;10589;53.636;10.012;2022-08-30T19:46:06;0.63;;;0.37;;
20857;SDS011;10589;53.636;10.012;2022-08-30T19:48:33;0.47;;;0.20;;
20857;SDS011;10589;53.636;10.012;2022-08-30T19:50:59;1.90;;;0.30;;
20857;SDS011;10589;53.636;10.012;2022-08-30T19:53:30;2.57;;;0.40;;
20857;SDS011;10589;53.636;10.012;2022-08-30T19:55:56;2.10;;;0.50;;
20857;SDS011;10589;53.636;10.012;2022-08-30T19:58:22;0.83;;;0.50;;
20857;SDS011;10589;53.636;10.012;2022-08-30T20:00:48;1.17;;;0.50;;
20857;SDS011;10589;53.636;10.012;2022-08-30T20:03:14;0.80;;;0.40;;
20857;SDS011;10589;53.636;10.012;2022-08-30T20:05:39;2.67;;;0.60;;